createdAt,value
2023-04-16T00:01:16.189Z,3.67
2023-04-16T00:03:43.671Z,3.03
2023-04-16T00:06:12.599Z,3.17
2023-04-16T00:08:41.149Z,2.88
2023-04-16T00:11:08.268Z,2.80
2023-04-16T00:13:35.657Z,3.08
2023-04-16T00:16:03.135Z,2.80
2023-04-16T00:18:30.933Z,3.10
2023-04-16T00:20:58.110Z,3.00
2023-04-16T00:23:25.585Z,2.63
2023-04-16T00:25:53.825Z,3.00
2023-04-16T00:28:21.248Z,2.88
2023-04-16T00:30:48.472Z,3.40
2023-04-16T00:33:17.140Z,2.67
2023-04-16T00:35:46.906Z,3.13
2023-04-16T00:38:15.109Z,3.63
2023-04-16T00:40:42.311Z,2.97
2023-04-16T00:43:09.587Z,3.03
2023-04-16T00:45:37.266Z,3.53
2023-04-16T00:48:05.331Z,3.17
2023-04-16T00:50:33.202Z,3.08
2023-04-16T00:53:01.529Z,2.95
2023-04-16T00:55:29.028Z,2.72
2023-04-16T00:57:56.281Z,2.63
2023-04-16T01:00:23.647Z,3.00
2023-04-16T01:02:51.060Z,2.35
2023-04-16T01:05:19.489Z,2.45
2023-04-16T01:07:46.921Z,2.45
2023-04-16T01:10:14.194Z,2.10
2023-04-16T01:12:41.471Z,2.50
2023-04-16T01:15:09.142Z,2.55
2023-04-16T01:17:36.565Z,2.58
2023-04-16T01:20:04.139Z,2.40
2023-04-16T01:22:31.701Z,2.28
2023-04-16T01:24:59.204Z,2.28
2023-04-16T01:27:27.072Z,2.40
2023-04-16T01:29:56.374Z,2.58
2023-04-16T01:32:33.446Z,2.42
2023-04-16T01:35:00.804Z,2.40
2023-04-16T01:37:27.932Z,2.40
2023-04-16T01:39:55.166Z,2.47
2023-04-16T01:42:22.334Z,2.30
2023-04-16T01:44:50.944Z,2.30
2023-04-16T01:47:18.282Z,2.30
2023-04-16T01:49:48.323Z,2.58
2023-04-16T01:52:15.710Z,2.25
2023-04-16T01:54:43.064Z,2.30
2023-04-16T01:57:10.383Z,2.33
2023-04-16T01:59:37.686Z,2.53
2023-04-16T02:02:11.463Z,2.25
2023-04-16T02:04:41.396Z,2.50
2023-04-16T02:07:09.724Z,2.70
2023-04-16T02:09:39.115Z,2.10
2023-04-16T02:12:07.782Z,2.38
2023-04-16T02:14:35.170Z,2.47
2023-04-16T02:17:02.419Z,2.50
2023-04-16T02:19:31.309Z,2.38
2023-04-16T02:21:58.578Z,2.83
2023-04-16T02:24:25.818Z,2.55
2023-04-16T02:26:53.538Z,2.90
2023-04-16T02:29:22.639Z,2.90
2023-04-16T02:31:56.929Z,3.30
2023-04-16T02:34:25.658Z,2.58
2023-04-16T02:36:54.328Z,2.75
2023-04-16T02:39:21.716Z,3.00
2023-04-16T02:41:48.863Z,2.70
2023-04-16T02:44:16.077Z,3.15
2023-04-16T02:46:43.339Z,3.00
2023-04-16T02:49:10.916Z,3.30
2023-04-16T02:51:38.118Z,2.78
2023-04-16T02:54:05.705Z,2.70
2023-04-16T02:56:33.374Z,2.97
2023-04-16T02:59:00.796Z,2.47
2023-04-16T03:01:29.175Z,2.47
2023-04-16T03:03:56.733Z,2.70
2023-04-16T03:06:23.975Z,2.60
2023-04-16T03:08:51.318Z,2.80
2023-04-16T03:11:18.565Z,2.60
2023-04-16T03:13:46.027Z,2.58
2023-04-16T03:16:13.281Z,2.28
2023-04-16T03:18:40.726Z,2.75
2023-04-16T03:21:07.862Z,2.40
2023-04-16T03:23:36.531Z,2.30
2023-04-16T03:26:04.881Z,2.60
2023-04-16T03:28:32.199Z,2.33
2023-04-16T03:30:59.642Z,2.22
2023-04-16T03:33:27.131Z,2.42
2023-04-16T03:35:57.143Z,2.30
2023-04-16T03:38:26.817Z,2.45
2023-04-16T03:40:56.544Z,2.55
2023-04-16T03:43:23.990Z,2.60
2023-04-16T03:45:51.562Z,2.40
2023-04-16T03:48:21.901Z,2.88
2023-04-16T03:50:49.159Z,3.78
2023-04-16T03:53:19.268Z,2.90
2023-04-16T03:55:51.533Z,2.70
2023-04-16T03:58:20.480Z,3.10
2023-04-16T04:00:48.219Z,2.78
2023-04-16T04:03:17.982Z,3.15
2023-04-16T04:05:47.910Z,2.97
2023-04-16T04:08:19.987Z,2.92
2023-04-16T04:10:47.313Z,3.22
2023-04-16T04:13:15.619Z,3.25
2023-04-16T04:15:44.673Z,2.92
2023-04-16T04:18:11.809Z,2.97
2023-04-16T04:20:41.354Z,2.97
2023-04-16T04:23:08.981Z,3.05
2023-04-16T04:25:36.963Z,3.10
2023-04-16T04:28:04.342Z,3.58
2023-04-16T04:30:31.536Z,3.50
2023-04-16T04:32:58.642Z,3.22
2023-04-16T04:35:26.068Z,3.40
2023-04-16T04:37:53.610Z,3.25
2023-04-16T04:40:21.464Z,3.70
2023-04-16T04:42:48.669Z,3.30
2023-04-16T04:45:16.144Z,3.28
2023-04-16T04:47:43.437Z,3.70
2023-04-16T04:50:11.289Z,3.85
2023-04-16T04:52:39.086Z,3.50
2023-04-16T04:55:07.931Z,4.15
2023-04-16T04:57:35.847Z,3.97
2023-04-16T05:00:06.352Z,4.38
2023-04-16T05:02:41.954Z,4.45
2023-04-16T05:05:09.403Z,4.05
2023-04-16T05:07:36.922Z,4.20
2023-04-16T05:10:04.441Z,4.07
2023-04-16T05:12:31.563Z,3.30
2023-04-16T05:14:58.760Z,3.67
2023-04-16T05:17:26.005Z,3.38
2023-04-16T05:19:53.259Z,3.40
2023-04-16T05:22:20.522Z,3.38
2023-04-16T05:24:47.868Z,3.47
2023-04-16T05:27:15.045Z,3.50
2023-04-16T05:29:42.361Z,3.25
2023-04-16T05:32:10.463Z,4.20
2023-04-16T05:34:37.683Z,4.25
2023-04-16T05:37:04.897Z,3.30
2023-04-16T05:39:32.169Z,3.28
2023-04-16T05:41:59.339Z,3.15
2023-04-16T05:44:26.610Z,3.45
2023-04-16T05:46:54.053Z,3.83
2023-04-16T05:49:22.276Z,3.45
2023-04-16T05:51:50.838Z,3.92
2023-04-16T05:54:18.366Z,3.10
2023-04-16T05:56:45.639Z,3.13
2023-04-16T05:59:12.915Z,3.78
2023-04-16T06:01:40.138Z,3.60
2023-04-16T06:04:07.409Z,3.40
2023-04-16T06:06:34.597Z,3.20
2023-04-16T06:09:01.815Z,3.17
2023-04-16T06:11:30.717Z,3.53
2023-04-16T06:13:57.926Z,3.03
2023-04-16T06:16:25.494Z,3.47
2023-04-16T06:18:52.816Z,3.20
2023-04-16T06:21:20.056Z,3.75
2023-04-16T06:23:47.302Z,3.50
2023-04-16T06:26:14.462Z,3.30
2023-04-16T06:28:41.735Z,3.42
2023-04-16T06:31:09.109Z,3.78
2023-04-16T06:33:36.416Z,3.60
2023-04-16T06:36:03.655Z,3.33
2023-04-16T06:38:31.082Z,3.22
2023-04-16T06:40:59.424Z,3.40
2023-04-16T06:43:27.056Z,3.10
2023-04-16T06:45:55.528Z,3.45
2023-04-16T06:48:22.759Z,3.60
2023-04-16T06:50:49.885Z,4.65
2023-04-16T06:53:17.336Z,4.03
2023-04-16T06:55:44.436Z,4.05
2023-04-16T06:58:11.752Z,3.85
2023-04-16T07:00:39.035Z,4.95
2023-04-16T07:03:06.459Z,4.43
2023-04-16T07:05:33.748Z,4.22
2023-04-16T07:08:01.196Z,4.13
2023-04-16T07:10:28.446Z,3.45
2023-04-16T07:12:55.839Z,3.85
2023-04-16T07:15:23.081Z,4.82
2023-04-16T07:17:50.412Z,4.38
2023-04-16T07:20:17.776Z,4.40
2023-04-16T07:22:45.164Z,4.75
2023-04-16T07:25:12.394Z,4.30
2023-04-16T07:27:39.600Z,4.50
2023-04-16T07:30:08.152Z,4.25
2023-04-16T07:32:36.017Z,4.60
2023-04-16T07:35:03.911Z,4.93
2023-04-16T07:37:31.497Z,4.30
2023-04-16T07:39:59.975Z,4.72
2023-04-16T07:42:28.254Z,4.53
2023-04-16T07:44:55.873Z,4.90
2023-04-16T07:47:23.329Z,4.57
2023-04-16T07:49:50.754Z,4.03
2023-04-16T07:52:18.264Z,4.28
2023-04-16T07:54:45.461Z,4.95
2023-04-16T07:57:12.742Z,4.22
2023-04-16T07:59:39.935Z,5.05
2023-04-16T08:02:08.936Z,5.10
2023-04-16T08:04:36.570Z,4.95
2023-04-16T08:07:03.963Z,5.75
2023-04-16T08:09:31.395Z,4.90
2023-04-16T08:12:00.800Z,4.63
2023-04-16T08:14:28.147Z,6.57
2023-04-16T08:16:55.407Z,5.15
2023-04-16T08:19:22.546Z,5.20
2023-04-16T08:21:49.935Z,5.93
2023-04-16T08:24:17.112Z,6.00
2023-04-16T08:26:44.364Z,5.82
2023-04-16T08:29:11.853Z,5.20
2023-04-16T08:31:39.399Z,6.30
2023-04-16T08:34:06.849Z,5.57
2023-04-16T08:36:34.294Z,4.95
2023-04-16T08:39:01.385Z,6.63
2023-04-16T08:41:32.446Z,5.80
2023-04-16T08:44:05.827Z,6.25
2023-04-16T08:46:36.675Z,6.57
2023-04-16T08:49:07.072Z,6.82
2023-04-16T08:51:36.091Z,6.18
2023-04-16T08:54:06.228Z,6.18
2023-04-16T08:56:37.383Z,7.57
2023-04-16T08:59:05.745Z,6.10
2023-04-16T09:01:34.056Z,7.22
2023-04-16T09:04:01.848Z,6.32
2023-04-16T09:06:29.645Z,6.70
2023-04-16T09:08:59.455Z,7.03
2023-04-16T09:11:27.763Z,6.75
2023-04-16T09:13:55.165Z,7.60
2023-04-16T09:16:22.484Z,7.18
2023-04-16T09:18:49.786Z,5.70
2023-04-16T09:21:16.994Z,6.40
2023-04-16T09:23:45.395Z,6.47
2023-04-16T09:26:12.540Z,5.05
2023-04-16T09:28:42.114Z,6.72
2023-04-16T09:31:13.026Z,5.47
2023-04-16T09:33:40.587Z,6.40
2023-04-16T09:36:07.782Z,5.50
2023-04-16T09:38:38.276Z,6.90
2023-04-16T09:41:08.576Z,6.03
2023-04-16T09:43:36.519Z,6.30
2023-04-16T09:46:08.252Z,6.68
2023-04-16T09:48:36.096Z,6.22
2023-04-16T09:51:06.984Z,6.18
2023-04-16T09:53:34.427Z,5.82
2023-04-16T09:56:06.399Z,6.45
2023-04-16T09:58:38.206Z,6.78
2023-04-16T10:01:08.772Z,7.10
2023-04-16T10:03:38.026Z,6.55
2023-04-16T10:06:07.040Z,7.32
2023-04-16T10:08:34.197Z,6.65
2023-04-16T10:11:02.458Z,7.22
2023-04-16T10:13:31.397Z,7.55
2023-04-16T10:15:59.026Z,6.78
2023-04-16T10:18:26.407Z,6.80
2023-04-16T10:20:54.097Z,5.50
2023-04-16T10:23:22.965Z,6.72
2023-04-16T10:25:51.056Z,7.00
2023-04-16T10:28:18.962Z,7.35
2023-04-16T10:30:53.088Z,6.35
2023-04-16T10:33:22.002Z,6.97
2023-04-16T10:36:01.187Z,6.50
2023-04-16T10:38:35.413Z,6.72
2023-04-16T10:41:04.738Z,7.35
2023-04-16T10:43:38.647Z,5.90
2023-04-16T10:46:08.928Z,5.72
2023-04-16T10:48:48.576Z,5.40
2023-04-16T10:51:38.736Z,4.68
2023-04-16T10:54:20.051Z,4.68
2023-04-16T10:56:47.945Z,5.30
2023-04-16T10:59:20.081Z,5.78
2023-04-16T11:01:51.487Z,4.50
2023-04-16T11:04:40.093Z,4.38
2023-04-16T11:07:17.838Z,3.30
2023-04-16T11:10:02.542Z,3.63
2023-04-16T11:12:35.932Z,4.20
2023-04-16T11:17:37.384Z,4.25
2023-04-16T11:20:19.501Z,4.45
2023-04-16T11:22:51.093Z,3.75
2023-04-16T11:25:22.361Z,4.32
2023-04-16T11:27:50.494Z,3.92
2023-04-16T11:30:18.451Z,3.40
2023-04-16T11:32:47.135Z,2.53
2023-04-16T11:35:16.849Z,2.78
2023-04-16T11:37:44.912Z,3.22
2023-04-16T11:40:13.107Z,3.67
2023-04-16T11:42:42.417Z,3.03
2023-04-16T11:45:12.227Z,3.63
2023-04-16T11:47:42.649Z,3.72
2023-04-16T11:50:12.902Z,3.08
2023-04-16T11:52:40.234Z,3.17
2023-04-16T11:55:07.711Z,2.88
2023-04-16T11:57:34.994Z,2.45
2023-04-16T12:00:03.963Z,2.70
2023-04-16T12:02:36.933Z,2.88
2023-04-16T12:05:07.570Z,2.40
2023-04-16T12:07:37.854Z,2.45
2023-04-16T12:10:07.875Z,2.35
2023-04-16T12:12:35.583Z,2.15
2023-04-16T12:15:04.088Z,2.40
2023-04-16T12:17:33.338Z,2.00
2023-04-16T12:20:02.797Z,1.98
2023-04-16T12:22:36.842Z,2.05
2023-04-16T12:25:07.164Z,2.25
2023-04-16T12:27:38.549Z,2.08
2023-04-16T12:30:07.789Z,2.45
2023-04-16T12:32:35.112Z,2.50
2023-04-16T12:35:02.483Z,1.92
2023-04-16T12:37:29.706Z,1.90
2023-04-16T12:39:56.964Z,2.30
2023-04-16T12:42:24.135Z,2.25
2023-04-16T12:44:51.660Z,2.28
2023-04-16T12:47:18.888Z,2.03
2023-04-16T12:49:46.239Z,2.03
2023-04-16T12:52:13.589Z,1.88
2023-04-16T12:54:41.230Z,2.15
2023-04-16T12:57:08.372Z,2.03
2023-04-16T12:59:35.772Z,1.92
2023-04-16T13:02:03.095Z,1.85
2023-04-16T13:04:31.102Z,2.00
2023-04-16T13:06:58.467Z,2.05
2023-04-16T13:09:26.134Z,1.88
2023-04-16T13:11:53.256Z,1.90
2023-04-16T13:14:21.448Z,1.65
2023-04-16T13:16:48.539Z,1.98
2023-04-16T13:19:16.296Z,1.90
2023-04-16T13:21:43.548Z,1.83
2023-04-16T13:24:10.821Z,1.70
2023-04-16T13:26:37.947Z,1.77
2023-04-16T13:29:05.226Z,1.90
2023-04-16T13:31:32.501Z,1.60
2023-04-16T13:33:59.746Z,1.63
2023-04-16T13:36:27.902Z,1.65
2023-04-16T13:38:55.130Z,1.60
2023-04-16T13:41:22.297Z,1.75
2023-04-16T13:43:49.727Z,1.58
2023-04-16T13:46:16.997Z,1.48
2023-04-16T13:48:44.795Z,1.50
2023-04-16T13:51:12.109Z,1.70
2023-04-16T13:53:39.296Z,1.50
2023-04-16T13:56:07.257Z,1.20
2023-04-16T13:58:34.571Z,1.48
2023-04-16T14:01:01.726Z,1.33
2023-04-16T14:03:29.068Z,1.42
2023-04-16T14:05:56.353Z,1.30
2023-04-16T14:08:25.032Z,1.67
2023-04-16T14:10:53.076Z,1.20
2023-04-16T14:13:21.602Z,1.50
2023-04-16T14:15:48.861Z,1.30
2023-04-16T14:18:16.283Z,1.42
2023-04-16T14:20:44.040Z,1.30
2023-04-16T14:23:12.498Z,1.45
2023-04-16T14:25:39.693Z,1.33
2023-04-16T14:28:07.033Z,1.60
2023-04-16T14:30:34.172Z,1.67
2023-04-16T14:33:01.580Z,1.30
2023-04-16T14:35:28.934Z,1.42
2023-04-16T14:37:56.771Z,1.40
2023-04-16T14:40:23.978Z,1.55
2023-04-16T14:42:51.428Z,1.35
2023-04-16T14:45:18.662Z,1.58
2023-04-16T14:47:48.039Z,1.50
2023-04-16T14:50:15.870Z,1.67
2023-04-16T14:52:43.386Z,1.45
2023-04-16T14:55:10.629Z,1.83
2023-04-16T14:57:39.132Z,1.73
2023-04-16T15:00:09.094Z,1.40
2023-04-16T15:02:36.830Z,1.73
2023-04-16T15:05:04.603Z,1.70
2023-04-16T15:07:31.944Z,1.85
2023-04-16T15:09:59.464Z,1.70
2023-04-16T15:12:26.858Z,1.40
2023-04-16T15:14:54.065Z,1.65
2023-04-16T15:17:21.585Z,1.60
2023-04-16T15:19:48.918Z,1.70
2023-04-16T15:22:16.898Z,1.55
2023-04-16T15:24:44.256Z,1.48
2023-04-16T15:27:12.610Z,1.60
2023-04-16T15:29:39.874Z,1.70
2023-04-16T15:32:07.165Z,1.70
2023-04-16T15:34:34.376Z,1.60
2023-04-16T15:37:01.636Z,1.70
2023-04-16T15:39:28.846Z,1.67
2023-04-16T15:42:01.275Z,1.90
2023-04-16T15:44:31.470Z,1.85
2023-04-16T15:47:00.386Z,1.65
2023-04-16T15:49:27.753Z,1.80
2023-04-16T15:51:56.319Z,1.60
2023-04-16T15:54:24.043Z,1.80
2023-04-16T15:56:51.772Z,1.60
2023-04-16T15:59:19.137Z,1.55
2023-04-16T16:01:46.519Z,1.83
2023-04-16T16:04:13.860Z,1.80
2023-04-16T16:06:41.996Z,1.85
2023-04-16T16:09:09.634Z,1.80
2023-04-16T16:11:38.723Z,1.80
2023-04-16T16:14:06.022Z,1.83
2023-04-16T16:16:33.499Z,1.90
2023-04-16T16:19:00.829Z,1.67
2023-04-16T16:21:30.351Z,2.00
2023-04-16T16:23:58.064Z,1.50
2023-04-16T16:26:25.340Z,2.00
2023-04-16T16:28:52.644Z,1.95
2023-04-16T16:31:19.989Z,2.00
2023-04-16T16:33:47.284Z,1.90
2023-04-16T16:36:14.531Z,2.00
2023-04-16T16:38:42.652Z,2.00
2023-04-16T16:41:09.805Z,1.90
2023-04-16T16:43:37.012Z,1.80
2023-04-16T16:46:05.329Z,1.80
2023-04-16T16:48:32.615Z,1.77
2023-04-16T16:50:59.754Z,2.00
2023-04-16T16:53:27.428Z,2.10
2023-04-16T16:55:54.616Z,1.80
2023-04-16T16:58:21.922Z,1.88
2023-04-16T17:00:49.182Z,1.58
2023-04-16T17:03:17.103Z,2.00
2023-04-16T17:05:44.534Z,1.80
2023-04-16T17:08:12.211Z,2.05
2023-04-16T17:10:39.418Z,1.73
2023-04-16T17:13:06.758Z,2.05
2023-04-16T17:15:34.009Z,2.00
2023-04-16T17:18:01.472Z,1.80
2023-04-16T17:20:29.052Z,2.15
2023-04-16T17:22:56.339Z,1.98
2023-04-16T17:25:23.500Z,1.90
2023-04-16T17:27:50.737Z,2.30
2023-04-16T17:30:18.628Z,1.95
2023-04-16T17:32:46.296Z,1.83
2023-04-16T17:35:14.083Z,2.25
2023-04-16T17:37:41.500Z,1.95
2023-04-16T17:40:10.163Z,2.20
2023-04-16T17:42:37.522Z,1.80
2023-04-16T17:45:05.391Z,1.90
2023-04-16T17:47:36.610Z,2.40
2023-04-16T17:50:04.858Z,2.20
2023-04-16T17:52:31.976Z,2.30
2023-04-16T17:55:01.007Z,2.08
2023-04-16T17:57:28.171Z,1.90
2023-04-16T17:59:55.687Z,2.20
2023-04-16T18:02:23.508Z,2.05
2023-04-16T18:04:51.586Z,1.90
2023-04-16T18:07:19.495Z,2.28
2023-04-16T18:09:46.827Z,2.03
2023-04-16T18:12:14.115Z,2.10
2023-04-16T18:14:44.731Z,2.10
2023-04-16T18:17:13.132Z,1.83
2023-04-16T18:19:43.780Z,2.30
2023-04-16T18:22:13.307Z,2.08
2023-04-16T18:24:40.886Z,1.77
2023-04-16T18:27:08.045Z,1.90
2023-04-16T18:29:35.608Z,2.05
2023-04-16T18:32:04.551Z,2.30
2023-04-16T18:34:32.294Z,1.95
2023-04-16T18:36:59.497Z,2.10
2023-04-16T18:39:27.239Z,2.05
2023-04-16T18:41:54.422Z,2.22
2023-04-16T18:44:21.663Z,2.28
2023-04-16T18:46:49.562Z,2.25
2023-04-16T18:49:16.812Z,2.17
2023-04-16T18:51:43.986Z,2.70
2023-04-16T18:54:11.485Z,2.42
2023-04-16T18:56:38.701Z,2.30
2023-04-16T18:59:05.890Z,2.60
2023-04-16T19:01:33.105Z,2.55
2023-04-16T19:04:00.438Z,2.53
2023-04-16T19:06:28.333Z,2.33
2023-04-16T19:08:55.767Z,2.35
2023-04-16T19:11:22.969Z,2.30
2023-04-16T19:13:50.247Z,2.13
2023-04-16T19:16:17.678Z,2.42
2023-04-16T19:18:44.918Z,2.22
2023-04-16T19:21:12.245Z,2.55
2023-04-16T19:23:39.665Z,2.30
2023-04-16T19:26:06.952Z,2.80
2023-04-16T19:28:34.104Z,2.47
2023-04-16T19:31:01.409Z,2.15
2023-04-16T19:33:28.733Z,2.92
2023-04-16T19:35:55.986Z,2.80
2023-04-16T19:38:23.264Z,2.88
2023-04-16T19:40:50.377Z,2.65
2023-04-16T19:43:17.639Z,2.20
2023-04-16T19:45:46.696Z,2.50
2023-04-16T19:48:14.530Z,2.70
2023-04-16T19:50:42.820Z,2.42
2023-04-16T19:53:11.139Z,2.33
2023-04-16T19:55:40.489Z,2.92
2023-04-16T19:58:08.928Z,2.50
2023-04-16T20:00:38.545Z,2.58
2023-04-16T20:03:06.426Z,2.65
2023-04-16T20:05:33.659Z,2.63
2023-04-16T20:08:00.953Z,2.95
2023-04-16T20:10:28.082Z,2.38
2023-04-16T20:12:55.409Z,2.35
2023-04-16T20:15:22.691Z,3.15
2023-04-16T20:17:50.004Z,2.35
2023-04-16T20:20:17.354Z,2.33
2023-04-16T20:22:44.776Z,2.22
2023-04-16T20:25:14.416Z,2.45
2023-04-16T20:27:41.769Z,2.50
2023-04-16T20:30:09.407Z,2.60
2023-04-16T20:32:36.666Z,2.17
2023-04-16T20:37:29.609Z,2.20
2023-04-16T20:39:56.863Z,2.42
2023-04-16T20:42:26.408Z,2.58
2023-04-16T20:44:56.765Z,2.38
2023-04-16T20:47:24.230Z,2.72
2023-04-16T20:49:53.002Z,2.90
2023-04-16T20:52:21.741Z,2.92
2023-04-16T20:54:52.043Z,2.88
2023-04-16T20:57:19.497Z,2.47
2023-04-16T20:59:46.778Z,2.90
2023-04-16T21:02:14.195Z,2.70
2023-04-16T21:04:41.668Z,3.20
2023-04-16T21:07:09.172Z,3.00
2023-04-16T21:09:36.348Z,3.72
2023-04-16T21:12:03.691Z,3.70
2023-04-16T21:14:30.838Z,4.05
2023-04-16T21:16:58.108Z,3.33
2023-04-16T21:19:25.426Z,3.35
2023-04-16T21:21:52.697Z,3.60
2023-04-16T21:24:19.859Z,3.55
2023-04-16T21:26:47.153Z,3.47
2023-04-16T21:29:14.475Z,3.20
2023-04-16T21:31:41.940Z,2.92
2023-04-16T21:34:09.159Z,3.65
2023-04-16T21:36:36.554Z,3.65
2023-04-16T21:39:03.792Z,3.53
2023-04-16T21:41:31.041Z,3.47
2023-04-16T21:43:58.251Z,3.25
2023-04-16T21:46:26.397Z,3.15
2023-04-16T21:48:53.917Z,3.53
2023-04-16T21:51:28.988Z,3.20
2023-04-16T21:53:57.160Z,3.47
2023-04-16T21:56:25.945Z,3.28
2023-04-16T21:58:53.290Z,3.17
2023-04-16T22:01:20.492Z,3.50
2023-04-16T22:03:50.855Z,3.60
2023-04-16T22:06:18.779Z,3.50
2023-04-16T22:08:46.035Z,3.53
2023-04-16T22:11:13.294Z,3.40
2023-04-16T22:13:42.492Z,3.17
2023-04-16T22:16:11.747Z,3.35
2023-04-16T22:18:41.058Z,3.58
2023-04-16T22:21:08.383Z,3.92
2023-04-16T22:23:35.610Z,3.40
2023-04-16T22:26:03.128Z,3.22
2023-04-16T22:28:30.431Z,3.28
2023-04-16T22:30:57.629Z,3.35
2023-04-16T22:33:24.903Z,3.65
2023-04-16T22:35:52.272Z,3.58
2023-04-16T22:38:19.408Z,3.10
2023-04-16T22:40:48.889Z,3.42
2023-04-16T22:43:17.752Z,3.50
2023-04-16T22:45:46.551Z,3.53
2023-04-16T22:48:13.856Z,3.38
2023-04-16T22:50:46.215Z,3.28
2023-04-16T22:53:13.478Z,3.83
2023-04-16T22:55:40.602Z,3.30
2023-04-16T22:58:07.910Z,3.30
2023-04-16T23:00:35.346Z,3.97
2023-04-16T23:03:02.799Z,3.95
2023-04-16T23:05:30.102Z,3.60
2023-04-16T23:07:57.351Z,3.88
2023-04-16T23:10:24.507Z,3.83
2023-04-16T23:12:51.838Z,3.63
2023-04-16T23:15:19.090Z,3.80
2023-04-16T23:17:46.791Z,3.53
2023-04-16T23:20:14.437Z,3.53
2023-04-16T23:22:42.037Z,3.35
2023-04-16T23:25:09.758Z,3.70
2023-04-16T23:27:37.174Z,3.47
2023-04-16T23:30:05.487Z,3.70
2023-04-16T23:32:34.197Z,3.75
2023-04-16T23:35:01.649Z,3.65
2023-04-16T23:37:28.868Z,3.50
2023-04-16T23:39:56.050Z,3.65
2023-04-16T23:42:23.348Z,4.45
2023-04-16T23:44:50.584Z,3.97
2023-04-16T23:47:17.788Z,3.70
2023-04-16T23:49:45.038Z,3.50
2023-04-16T23:52:12.297Z,3.95
2023-04-16T23:54:39.477Z,3.70
2023-04-16T23:57:06.839Z,3.38
2023-04-16T23:59:33.948Z,3.65
